Time;durP1;ratioP1;P1;durP2;ratioP2;P2;SDS_P1;SDS_P2;PMS_P1;PMS_P2;Temp;Humidity;BMP_temperature;BMP_pressure;BME280_temperature;BME280_humidity;BME280_pressure;Samples;Min_cycle;Max_cycle;Signal;HPM_P1;HPM_P2
2022/06/01 00:00:55;;;;;;;2.50;2.10;;;;;;;14.89;95.75;100087.56;5035702;28;20048;-74
2022/06/01 00:03:23;;;;;;;2.22;2.03;;;;;;;14.86;96.59;100083.63;5053549;28;20465;-74
2022/06/01 00:05:48;;;;;;;3.67;2.25;;;;;;;14.70;97.84;100073.63;5019064;28;20039;-74
2022/06/01 00:08:14;;;;;;;2.50;1.90;;;;;;;14.70;97.54;100062.16;5002570;28;20021;-74
2022/06/01 00:10:39;;;;;;;2.08;1.88;;;;;;;14.70;98.25;100064.28;5018859;28;20186;-74
2022/06/01 00:13:05;;;;;;;2.88;2.10;;;;;;;14.70;98.64;100058.53;5035371;28;20021;-74
2022/06/01 00:15:31;;;;;;;2.22;1.55;;;;;;;14.60;99.13;100057.19;5035521;28;20059;-73
2022/06/01 00:17:58;;;;;;;2.47;2.00;;;;;;;14.47;100.00;100082.63;5035365;28;20025;-73
2022/06/01 00:20:25;;;;;;;2.58;2.28;;;;;;;14.35;100.00;100080.97;5053013;28;20033;-74
2022/06/01 00:22:50;;;;;;;2.08;1.88;;;;;;;14.26;100.00;100071.25;5053115;28;20381;-74
2022/06/01 00:25:15;;;;;;;2.30;2.10;;;;;;;14.37;100.00;100075.53;5053348;28;20029;-74
2022/06/01 00:27:41;;;;;;;4.47;1.98;;;;;;;14.42;100.00;100061.25;5053422;28;20071;-74
2022/06/01 00:30:09;;;;;;;3.28;2.45;;;;;;;14.24;100.00;100067.34;5053048;28;20497;-74
2022/06/01 00:32:35;;;;;;;2.67;1.88;;;;;;;14.28;100.00;100073.63;5052927;28;20021;-74
2022/06/01 00:35:02;;;;;;;3.47;2.35;;;;;;;14.20;100.00;100073.31;5052933;28;20029;-74
2022/06/01 00:37:27;;;;;;;3.75;2.78;;;;;;;14.25;100.00;100071.78;5035141;28;20042;-74
2022/06/01 00:39:53;;;;;;;2.97;2.13;;;;;;;14.44;100.00;100075.84;5035103;28;20381;-74
2022/06/01 00:42:30;;;;;;;2.72;2.05;;;;;;;14.37;100.00;100073.44;5035029;28;20024;-75
2022/06/01 00:44:56;;;;;;;3.28;1.98;;;;;;;14.36;100.00;100074.75;5052953;28;20095;-74
2022/06/01 00:47:23;;;;;;;3.22;2.28;;;;;;;14.34;100.00;100079.41;5052749;28;20025;-74
2022/06/01 00:49:57;;;;;;;2.83;2.17;;;;;;;14.36;100.00;100065.31;5052622;28;20335;-74
2022/06/01 00:52:35;;;;;;;2.40;2.13;;;;;;;14.37;100.00;100061.19;5035066;28;20115;-74
2022/06/01 00:55:04;;;;;;;2.85;2.60;;;;;;;14.42;100.00;100072.69;5020958;28;20025;-74
2022/06/01 00:57:30;;;;;;;5.75;2.00;;;;;;;14.54;100.00;100077.22;5022368;28;20024;-74
2022/06/01 00:59:57;;;;;;;2.67;2.47;;;;;;;14.37;100.00;100070.59;5022145;28;20036;-75
2022/06/01 01:02:22;;;;;;;4.28;2.40;;;;;;;14.42;100.00;100066.19;5039056;28;20028;-75
2022/06/01 01:04:48;;;;;;;6.53;2.03;;;;;;;14.38;100.00;100077.91;5038671;28;20025;-74
2022/06/01 01:07:13;;;;;;;2.70;2.20;;;;;;;14.36;100.00;100073.91;5022233;28;20436;-73
2022/06/01 01:09:39;;;;;;;5.50;2.30;;;;;;;14.18;100.00;100049.34;5056613;28;20094;-74
2022/06/01 01:12:08;;;;;;;2.50;2.15;;;;;;;14.31;100.00;100054.66;5022065;28;20523;-74
2022/06/01 01:14:36;;;;;;;4.20;3.03;;;;;;;14.36;100.00;100051.81;5022084;28;20024;-74
2022/06/01 01:17:04;;;;;;;2.58;2.38;;;;;;;14.18;100.00;100050.13;5022023;28;20057;-74
2022/06/01 01:19:55;;;;;;;3.65;2.30;;;;;;;14.27;100.00;100038.47;5038882;28;20037;-74
2022/06/01 01:22:39;;;;;;;3.00;2.70;;;;;;;14.26;100.00;100051.22;5033647;28;20068;-74
2022/06/01 01:25:28;;;;;;;3.63;3.15;;;;;;;14.18;100.00;100035.81;5056061;28;20035;-74
2022/06/01 01:27:57;;;;;;;4.40;2.67;;;;;;;14.24;100.00;100036.63;5023047;28;20492;-74
2022/06/01 01:30:57;;;;;;;2.60;2.40;;;;;;;14.15;100.00;100028.25;5038587;28;20060;-74
2022/06/01 01:33:26;;;;;;;3.17;2.58;;;;;;;14.12;100.00;100017.00;5006200;28;20053;-75
2022/06/01 01:35:54;;;;;;;3.03;2.75;;;;;;;14.17;100.00;100004.78;5038388;28;20029;-75
2022/06/01 01:38:41;;;;;;;3.72;2.83;;;;;;;14.23;100.00;100014.22;5038306;28;20028;-73
2022/06/01 01:41:10;;;;;;;3.05;2.45;;;;;;;14.25;100.00;100003.81;5055991;28;20025;-74
2022/06/01 01:43:59;;;;;;;2.25;2.00;;;;;;;14.21;100.00;99983.19;5056203;28;20029;-76
2022/06/01 01:46:27;;;;;;;3.65;2.78;;;;;;;14.28;100.00;99981.94;5038587;28;20368;-76
2022/06/01 01:48:52;;;;;;;3.65;2.58;;;;;;;14.26;100.00;99984.53;5034640;28;20045;-74
2022/06/01 01:51:22;;;;;;;4.13;2.15;;;;;;;14.39;100.00;99986.97;5035575;28;20024;-74
2022/06/01 01:53:48;;;;;;;2.95;2.75;;;;;;;14.40;100.00;99986.47;5035772;28;20112;-75
2022/06/01 01:56:28;;;;;;;2.33;2.10;;;;;;;14.44;100.00;99969.03;5035548;28;20033;-73
2022/06/01 01:59:02;;;;;;;2.03;1.83;;;;;;;14.38;100.00;99953.88;5018067;28;20087;-74
2022/06/01 02:01:34;;;;;;;4.07;2.35;;;;;;;14.36;100.00;99954.41;5034353;28;20021;-74
2022/06/01 02:06:03;;;;;;;1.80;1.70;;;;;;;14.44;99.80;99963.31;5034479;28;20101;-74
2022/06/01 02:06:53;;;;;;;3.55;1.85;;;;;;;14.36;98.20;99968.72;5033337;28;20041;-73
2022/06/01 02:09:18;;;;;;;2.65;2.10;;;;;;;14.27;98.27;99968.91;5034442;28;20048;-73
2022/06/01 02:14:47;;;;;;;2.45;2.17;;;;;;;14.23;100.00;99976.97;5035435;28;20537;-76
2022/06/01 02:17:20;;;;;;;4.78;2.97;;;;;;;14.17;100.00;99971.19;5034029;28;20470;-74
2022/06/01 02:19:48;;;;;;;3.70;2.88;;;;;;;14.10;100.00;99956.59;5034121;28;20022;-75
2022/06/01 02:22:14;;;;;;;4.35;3.40;;;;;;;14.11;100.00;99955.31;5034008;28;20565;-74
2022/06/01 02:24:41;;;;;;;3.75;2.80;;;;;;;14.15;100.00;99958.69;5017483;28;20108;-74
2022/06/01 02:27:07;;;;;;;3.53;2.70;;;;;;;14.09;100.00;99952.94;5017459;28;20029;-74
2022/06/01 02:29:38;;;;;;;3.78;3.03;;;;;;;14.09;100.00;99950.06;5034962;28;20072;-75
2022/06/01 02:32:04;;;;;;;3.80;3.25;;;;;;;13.89;100.00;99921.59;5033818;28;20053;-74
2022/06/01 02:34:31;;;;;;;3.83;3.03;;;;;;;14.03;100.00;99952.13;5033900;28;20061;-74
2022/06/01 02:36:57;;;;;;;3.50;3.08;;;;;;;13.99;100.00;99943.00;5034019;28;20116;-74
2022/06/01 02:39:23;;;;;;;4.68;3.15;;;;;;;13.96;100.00;99943.22;5033873;28;20109;-75
2022/06/01 02:44:33;;;;;;;3.95;3.55;;;;;;;13.92;100.00;99948.38;5035177;28;20138;-75
2022/06/01 02:46:58;;;;;;;5.40;3.40;;;;;;;13.80;100.00;99953.28;5016918;28;20453;-75
2022/06/01 02:49:24;;;;;;;3.60;3.30;;;;;;;13.83;100.00;99952.25;5016760;28;20049;-76
2022/06/01 02:51:49;;;;;;;4.03;3.17;;;;;;;13.79;100.00;99961.09;5016890;28;20029;-75
2022/06/01 02:54:15;;;;;;;4.57;3.53;;;;;;;13.70;100.00;99966.22;5034574;28;20045;-75
2022/06/01 02:56:40;;;;;;;4.65;3.22;;;;;;;13.57;100.00;99963.75;5016748;28;20112;-75
2022/06/01 02:59:06;;;;;;;3.75;3.05;;;;;;;13.45;100.00;99976.44;5034727;28;20033;-74
2022/06/01 03:01:33;;;;;;;4.00;3.33;;;;;;;13.28;100.00;99964.03;5016779;28;20090;-74
2022/06/01 03:03:58;;;;;;;4.25;3.58;;;;;;;13.30;100.00;99973.69;5033534;28;20033;-75
2022/06/01 03:06:24;;;;;;;5.07;4.03;;;;;;;13.31;100.00;99989.56;5033277;28;20486;-76
2022/06/01 03:08:49;;;;;;;4.93;4.20;;;;;;;13.24;100.00;99970.00;5033205;28;20038;-75
2022/06/01 03:11:15;;;;;;;4.57;3.85;;;;;;;13.25;100.00;99973.63;5033089;28;20022;-74
2022/06/01 03:13:40;;;;;;;5.25;3.65;;;;;;;13.18;100.00;99969.16;5034715;28;20164;-75
2022/06/01 03:16:06;;;;;;;4.95;3.53;;;;;;;13.18;100.00;99959.78;5033852;28;20025;-75
2022/06/01 03:18:31;;;;;;;4.93;3.60;;;;;;;13.13;100.00;99974.81;5034014;28;20021;-75
2022/06/01 03:20:58;;;;;;;4.15;3.72;;;;;;;13.12;100.00;99967.53;5032805;28;20021;-75
2022/06/01 03:23:24;;;;;;;4.15;3.53;;;;;;;13.19;100.00;99958.50;5016328;28;20056;-75
2022/06/01 03:25:50;;;;;;;7.93;4.60;;;;;;;13.20;100.00;99963.72;5016284;28;20025;-75
2022/06/01 03:28:16;;;;;;;4.78;4.10;;;;;;;13.25;100.00;99954.41;5016170;28;20021;-74
2022/06/01 03:30:43;;;;;;;5.28;4.22;;;;;;;13.33;100.00;99951.84;5016188;28;20021;-75
2022/06/01 03:33:09;;;;;;;4.80;3.58;;;;;;;13.32;100.00;99936.78;5032739;28;20060;-74
2022/06/01 03:35:36;;;;;;;3.78;3.45;;;;;;;13.41;100.00;99950.13;5032560;28;20034;-74
2022/06/01 03:38:03;;;;;;;5.13;3.83;;;;;;;13.42;100.00;99950.91;5032726;28;20026;-74
2022/06/01 03:40:31;;;;;;;3.85;3.45;;;;;;;13.38;100.00;99943.31;5032582;28;20432;-75
2022/06/01 03:42:56;;;;;;;4.03;3.47;;;;;;;13.31;100.00;99940.16;5033905;28;20028;-75
2022/06/01 03:48:08;;;;;;;4.28;3.33;;;;;;;13.32;100.00;99945.34;5036241;28;20489;-74
2022/06/01 03:50:34;;;;;;;3.42;3.05;;;;;;;13.33;100.00;99957.56;5053796;28;20036;-74
2022/06/01 03:53:00;;;;;;;6.32;3.80;;;;;;;13.31;100.00;99949.53;5035425;28;20029;-73
2022/06/01 03:55:26;;;;;;;5.07;3.55;;;;;;;13.37;100.00;99952.41;5053412;28;20369;-75
2022/06/01 03:57:52;;;;;;;3.70;3.25;;;;;;;13.41;100.00;99958.72;5035936;28;20074;-74
2022/06/01 04:00:23;;;;;;;4.55;3.30;;;;;;;13.41;100.00;99958.72;5053368;28;20116;-74
2022/06/01 04:02:49;;;;;;;;;;;;;;;13.32;100.00;99964.63;5036597;28;20024;-75
2022/06/01 04:05:14;;;;;;;5.88;3.75;;;;;;;13.34;100.00;99965.66;5035671;28;20273;-76
2022/06/01 04:07:40;;;;;;;3.78;3.28;;;;;;;13.35;100.00;99964.38;5053600;28;20032;-75
2022/06/01 04:10:06;;;;;;;8.00;3.90;;;;;;;13.41;100.00;99967.28;5035656;28;20032;-75
2022/06/01 04:12:31;;;;;;;4.13;3.72;;;;;;;13.43;100.00;99963.91;5018968;28;20025;-73
2022/06/01 04:14:58;;;;;;;4.13;3.40;;;;;;;13.48;100.00;99960.31;5035493;28;20079;-75
2022/06/01 04:17:23;;;;;;;4.95;4.03;;;;;;;13.63;100.00;99958.88;5035024;28;20033;-75
2022/06/01 04:19:49;;;;;;;6.38;4.10;;;;;;;13.64;100.00;99963.31;5053314;28;20033;-75
2022/06/01 04:22:23;;;;;;;6.00;3.63;;;;;;;13.77;100.00;99965.72;5053320;28;20025;-75
2022/06/01 04:24:49;;;;;;;3.83;3.47;;;;;;;13.77;100.00;99972.25;5035545;28;20107;-75
2022/06/01 04:27:16;;;;;;;4.35;3.33;;;;;;;13.84;100.00;99974.66;5035290;28;20029;-75
2022/06/01 04:29:42;;;;;;;4.65;4.05;;;;;;;13.89;100.00;99972.34;5037556;28;20036;-75
2022/06/01 04:32:22;;;;;;;4.03;3.63;;;;;;;13.96;100.00;99978.34;5025219;28;20090;-75
2022/06/01 04:34:49;;;;;;;3.50;3.15;;;;;;;14.08;100.00;99968.56;5025810;28;20040;-75
2022/06/01 04:37:15;;;;;;;3.83;3.00;;;;;;;14.08;100.00;99974.28;5059881;28;20067;-75
2022/06/01 04:39:41;;;;;;;3.80;3.40;;;;;;;14.18;100.00;99980.59;5057669;28;20187;-75
2022/06/01 04:42:10;;;;;;;3.63;3.20;;;;;;;14.28;100.00;99968.41;5058939;28;20490;-73
2022/06/01 04:44:36;;;;;;;3.63;3.33;;;;;;;14.27;100.00;99980.38;5059595;28;20033;-73
2022/06/01 04:47:04;;;;;;;4.10;2.70;;;;;;;14.35;99.71;99978.59;5058676;28;20040;-75
2022/06/01 04:49:31;;;;;;;3.38;3.08;;;;;;;14.40;100.00;99986.47;5025133;28;20055;-74
2022/06/01 04:51:58;;;;;;;4.47;3.28;;;;;;;14.46;100.00;99990.13;5025152;28;20477;-75
2022/06/01 04:54:24;;;;;;;4.25;3.78;;;;;;;14.53;100.00;99988.88;5024992;28;20032;-76
2022/06/01 04:56:50;;;;;;;3.72;2.88;;;;;;;14.62;99.83;99980.03;5059746;28;20423;-77
2022/06/01 04:59:17;;;;;;;3.00;2.75;;;;;;;14.73;99.88;99985.03;5039241;28;20428;-75
2022/06/01 05:01:44;;;;;;;3.40;3.10;;;;;;;14.85;98.65;99990.28;5059397;28;20465;-76
2022/06/01 05:04:11;;;;;;;3.60;3.20;;;;;;;14.91;98.81;99998.91;5008904;28;20032;-75
2022/06/01 05:06:51;;;;;;;3.33;3.03;;;;;;;15.03;97.93;100000.53;5041749;28;20378;-76
2022/06/01 05:09:17;;;;;;;3.75;3.17;;;;;;;15.18;97.41;100006.81;5041269;28;20025;-75
2022/06/01 05:11:43;;;;;;;2.92;2.35;;;;;;;15.24;96.66;100009.69;5059500;28;20059;-75
2022/06/01 05:14:14;;;;;;;3.03;2.38;;;;;;;15.33;94.02;100007.38;5059340;28;20021;-76
2022/06/01 05:16:42;;;;;;;3.80;2.13;;;;;;;15.33;92.00;99997.97;5059843;28;20035;-73
2022/06/01 05:19:08;;;;;;;2.47;1.92;;;;;;;15.46;91.85;100001.09;5024965;28;20025;-74
2022/06/01 05:21:36;;;;;;;2.25;1.80;;;;;;;15.55;90.52;100007.41;5025062;28;20119;-76
2022/06/01 05:24:02;;;;;;;4.28;1.95;;;;;;;15.61;90.34;100006.63;5059445;28;20032;-72
2022/06/01 05:26:29;;;;;;;2.42;1.70;;;;;;;15.70;88.85;100015.75;5059404;28;20035;-72
2022/06/01 05:28:54;;;;;;;2.92;2.63;;;;;;;15.66;88.15;100015.25;5041045;28;20036;-74
2022/06/01 05:31:22;;;;;;;2.15;1.95;;;;;;;15.81;87.58;100024.38;5058986;28;20028;-75
2022/06/01 05:33:48;;;;;;;2.22;1.88;;;;;;;15.90;87.57;100017.59;5059037;28;20025;-74
2022/06/01 05:36:15;;;;;;;5.43;2.03;;;;;;;16.03;88.23;100017.06;5039907;28;20051;-74
2022/06/01 05:38:40;;;;;;;2.30;1.77;;;;;;;16.13;86.63;100019.16;5040907;28;20086;-72
2022/06/01 05:41:05;;;;;;;2.08;1.85;;;;;;;16.08;85.36;100030.66;5057333;28;20025;-76
2022/06/01 05:43:31;;;;;;;2.17;1.63;;;;;;;16.18;85.65;100029.06;5054120;28;20056;-76
2022/06/01 05:45:56;;;;;;;2.03;1.83;;;;;;;16.11;83.11;100039.00;5054706;28;20031;-75
2022/06/01 05:48:23;;;;;;;2.05;1.88;;;;;;;16.29;83.24;100041.31;5053037;28;20491;-75
2022/06/01 05:50:48;;;;;;;3.65;2.17;;;;;;;16.46;83.87;100044.16;5054119;28;20056;-74
2022/06/01 05:53:14;;;;;;;2.35;1.60;;;;;;;16.99;83.55;100045.81;5054184;28;20055;-76
2022/06/01 05:55:43;;;;;;;1.38;1.13;;;;;;;18.45;78.79;100043.44;5054486;28;20036;-73
2022/06/01 05:58:16;;;;;;;1.38;1.15;;;;;;;20.39;69.70;100047.78;5038136;28;20478;-76
2022/06/01 06:00:43;;;;;;;1.77;1.50;;;;;;;22.10;62.22;100054.13;5053534;28;20052;-75
2022/06/01 06:03:09;;;;;;;3.90;1.23;;;;;;;23.79;51.41;100037.88;5053887;28;20072;-74
2022/06/01 06:08:21;;;;;;;1.30;1.10;;;;;;;25.54;44.47;100044.31;5055612;28;20036;-73
2022/06/01 06:10:48;;;;;;;1.30;1.20;;;;;;;26.10;42.06;100044.97;5037286;28;20087;-73
2022/06/01 06:13:15;;;;;;;2.40;1.45;;;;;;;27.13;38.96;100029.81;5055385;28;20453;-76
2022/06/01 06:15:42;;;;;;;1.98;1.10;;;;;;;28.19;35.93;100035.00;5054000;28;20021;-74
2022/06/01 06:18:11;;;;;;;1.75;1.30;;;;;;;29.41;34.04;100048.25;5055247;28;20021;-74
2022/06/01 06:20:38;;;;;;;2.10;1.50;;;;;;;30.35;34.00;100044.16;5037506;28;20024;-75
2022/06/01 06:23:04;;;;;;;1.30;1.20;;;;;;;30.89;30.82;100044.34;5053686;28;20050;-74
2022/06/01 06:25:30;;;;;;;1.35;1.10;;;;;;;31.47;30.39;100053.53;5053515;28;20474;-73
2022/06/01 06:27:55;;;;;;;1.88;1.52;;;;;;;31.63;29.84;100056.81;5051827;28;20024;-75
2022/06/01 06:30:21;;;;;;;1.58;1.10;;;;;;;32.04;31.21;100048.47;5053483;28;20388;-75
2022/06/01 06:32:46;;;;;;;1.52;1.33;;;;;;;32.75;27.50;100053.03;5054597;28;20021;-75
2022/06/01 06:35:12;;;;;;;2.03;1.30;;;;;;;33.05;26.02;100051.97;5052860;28;20021;-74
2022/06/01 06:37:38;;;;;;;1.38;1.27;;;;;;;33.62;26.70;100040.59;5052672;28;20057;-75
2022/06/01 06:40:04;;;;;;;2.03;1.42;;;;;;;34.12;24.36;100046.50;5051470;28;20052;-75
2022/06/01 06:42:30;;;;;;;0.95;0.95;;;;;;;34.35;26.01;100047.78;5051328;28;20017;-75
2022/06/01 06:44:55;;;;;;;1.45;1.35;;;;;;;35.00;24.00;100043.97;5052566;28;20039;-74
2022/06/01 06:47:21;;;;;;;2.17;1.38;;;;;;;35.05;23.90;100039.81;5052317;28;20086;-75
2022/06/01 06:49:46;;;;;;;1.25;1.17;;;;;;;35.23;23.87;100042.97;5052147;28;20048;-75
2022/06/01 06:52:12;;;;;;;30.50;5.57;;;;;;;34.95;22.34;100044.41;5052244;28;20335;-73
2022/06/01 06:54:37;;;;;;;1.88;1.23;;;;;;;34.77;24.02;100043.47;5054436;28;20025;-74
2022/06/01 06:57:03;;;;;;;7.78;2.20;;;;;;;35.84;22.10;100040.16;5053445;28;20047;-74
2022/06/01 06:59:28;;;;;;;3.15;1.65;;;;;;;35.88;21.09;100041.13;5054873;28;20029;-74
2022/06/01 07:01:54;;;;;;;1.67;1.27;;;;;;;35.91;23.02;100048.69;5053463;28;20419;-73
2022/06/01 07:04:19;;;;;;;2.13;1.23;;;;;;;36.05;20.89;100051.59;5054390;28;20028;-73
2022/06/01 07:06:44;;;;;;;1.85;1.33;;;;;;;35.82;21.55;100046.00;5054209;28;20029;-75
2022/06/01 07:09:10;;;;;;;1.45;1.35;;;;;;;36.23;22.12;100055.47;5053517;28;20027;-74
2022/06/01 07:11:37;;;;;;;1.30;1.20;;;;;;;36.54;20.63;100063.59;5053074;28;20392;-74
2022/06/01 07:14:03;;;;;;;5.05;1.90;;;;;;;36.32;21.05;100047.69;5053225;28;20143;-74
2022/06/01 07:16:30;;;;;;;3.72;2.00;;;;;;;36.60;20.09;100048.28;5053827;28;20060;-73
2022/06/01 07:18:58;;;;;;;1.25;1.15;;;;;;;36.91;20.82;100057.16;5036238;28;20025;-74
2022/06/01 07:21:24;;;;;;;2.30;1.65;;;;;;;36.95;20.65;100048.44;5052699;28;20420;-76
2022/06/01 07:23:50;;;;;;;3.55;1.58;;;;;;;37.94;20.61;100060.94;5054263;28;20021;-74
2022/06/01 07:26:24;;;;;;;2.10;1.30;;;;;;;38.67;18.29;100048.97;5036125;28;20032;-73
2022/06/01 07:28:50;;;;;;;1.73;1.45;;;;;;;38.43;18.79;100039.84;5053961;28;20047;-75
2022/06/01 07:31:17;;;;;;;1.15;1.13;;;;;;;37.85;20.57;100053.84;5052456;28;20479;-74
2022/06/01 07:33:43;;;;;;;1.17;1.08;;;;;;;38.46;20.64;100050.41;5035886;28;20481;-74
2022/06/01 07:36:10;;;;;;;1.67;1.05;;;;;;;38.36;18.68;100050.75;5052487;28;20017;-74
2022/06/01 07:44:11;;;;;;;1.48;1.30;;;;;;;33.24;24.23;100063.50;5052603;28;20102;-74
2022/06/01 07:46:38;;;;;;;1.40;1.30;;;;;;;32.06;25.84;100070.03;5034941;28;20473;-73
2022/06/01 07:49:07;;;;;;;3.58;1.25;;;;;;;31.57;26.09;100074.09;5043499;28;20107;-73
2022/06/01 07:51:37;;;;;;;2.45;1.17;;;;;;;30.40;28.31;100066.56;5035849;28;20061;-74
2022/06/01 07:54:05;;;;;;;1.50;1.40;;;;;;;30.07;28.49;100069.34;5035558;28;20148;-72
2022/06/01 07:56:30;;;;;;;2.78;1.60;;;;;;;30.47;28.81;100062.72;5036111;28;20036;-74
2022/06/01 07:58:57;;;;;;;2.17;1.90;;;;;;;30.81;28.94;100055.56;5051863;28;20040;-73
2022/06/01 08:01:25;;;;;;;1.30;1.20;;;;;;;31.43;27.85;100061.34;5053363;28;20032;-73
2022/06/01 08:03:56;;;;;;;1.45;1.35;;;;;;;32.54;27.17;100050.97;5051669;28;20423;-75
2022/06/01 08:06:23;;;;;;;1.17;0.88;;;;;;;33.64;25.74;100041.50;5051587;28;20056;-75
2022/06/01 08:08:50;;;;;;;1.73;1.55;;;;;;;34.72;25.19;100039.50;5052834;28;20025;-73
2022/06/01 08:11:16;;;;;;;2.53;1.40;;;;;;;35.12;22.85;100054.94;5051245;28;20474;-74
2022/06/01 08:13:42;;;;;;;1.25;1.08;;;;;;;35.66;22.32;100048.91;5051835;28;20032;-74
2022/06/01 08:16:09;;;;;;;1.10;1.10;;;;;;;36.12;22.36;100052.63;5045000;28;20115;-73
2022/06/01 08:18:34;;;;;;;1.23;0.95;;;;;;;36.27;22.46;100061.59;5018601;28;20033;-73
2022/06/01 08:21:00;;;;;;;2.67;1.25;;;;;;;36.45;21.21;100064.66;5034947;28;20048;-75
2022/06/01 08:23:28;;;;;;;1.38;0.90;;;;;;;36.06;21.66;100067.19;5038762;28;20025;-72
2022/06/01 08:25:53;;;;;;;2.40;1.15;;;;;;;36.43;21.35;100066.75;5035144;28;20029;-72
2022/06/01 08:28:22;;;;;;;1.48;1.38;;;;;;;36.51;22.00;100064.94;5035722;28;20420;-74
2022/06/01 08:30:48;;;;;;;1.40;1.30;;;;;;;36.27;21.12;100067.50;5052859;28;20029;-74
2022/06/01 08:33:14;;;;;;;1.50;1.40;;;;;;;36.27;22.09;100072.69;5051630;28;20068;-73
2022/06/01 08:35:43;;;;;;;2.15;1.30;;;;;;;36.04;21.85;100076.75;5051659;28;20040;-73
2022/06/01 08:38:09;;;;;;;2.17;1.20;;;;;;;36.07;21.31;100065.72;5029143;28;20560;-72
2022/06/01 08:40:42;;;;;;;2.20;2.00;;;;;;;36.23;21.68;100072.50;5031451;28;20030;-73
2022/06/01 08:43:12;;;;;;;1.60;1.42;;;;;;;35.67;20.71;100068.22;5033042;28;20033;-73
2022/06/01 08:45:40;;;;;;;1.73;1.43;;;;;;;35.60;21.23;100068.56;5031576;28;20049;-73
2022/06/01 08:48:16;;;;;;;1.52;1.20;;;;;;;35.68;21.81;100060.88;5015196;28;20405;-73
2022/06/01 08:50:43;;;;;;;2.55;1.35;;;;;;;35.42;21.01;100066.22;5028794;28;20060;-73
2022/06/01 08:53:10;;;;;;;1.40;1.23;;;;;;;34.96;20.94;100063.72;5052882;28;20037;-73
2022/06/01 08:55:59;;;;;;;9.80;2.92;;;;;;;34.88;21.58;100067.00;5053122;28;20465;-72
2022/06/01 08:59:19;;;;;;;1.63;1.52;;;;;;;34.52;21.85;100065.00;5019975;28;20114;-72
2022/06/01 09:01:57;;;;;;;2.35;1.48;;;;;;;34.80;22.70;100045.09;5046569;28;20041;-72
2022/06/01 09:04:28;;;;;;;3.33;1.50;;;;;;;35.24;22.01;100067.44;5053009;28;20033;-73
2022/06/01 09:07:11;;;;;;;3.85;1.40;;;;;;;35.65;22.11;100058.44;5052689;28;20381;-72
2022/06/01 09:10:01;;;;;;;1.63;1.20;;;;;;;35.58;22.16;100071.41;5034599;28;20068;-72
2022/06/01 09:12:30;;;;;;;2.30;1.63;;;;;;;35.50;21.50;100071.78;5052718;28;20104;-72
2022/06/01 09:14:58;;;;;;;2.70;1.50;;;;;;;35.70;20.99;100078.00;5018435;28;20079;-73
2022/06/01 09:17:25;;;;;;;3.13;1.30;;;;;;;35.31;19.86;100072.25;5021315;28;20037;-72
2022/06/01 09:22:45;;;;;;;5.90;1.40;;;;;;;34.37;20.82;100075.28;5056715;28;20040;-72
2022/06/01 09:25:19;;;;;;;8.65;2.13;;;;;;;33.50;21.76;100064.28;5056523;28;20142;-73
2022/06/01 09:27:52;;;;;;;1.17;1.10;;;;;;;32.65;21.70;100070.13;5055039;28;20028;-74
2022/06/01 09:30:39;;;;;;;1.92;1.13;;;;;;;32.23;24.02;100071.84;5054984;28;20053;-73
2022/06/01 09:33:26;;;;;;;1.83;1.20;;;;;;;31.80;23.56;100064.56;5055030;28;20033;-73
2022/06/01 09:36:23;;;;;;;1.08;1.00;;;;;;;31.77;23.12;100065.84;5056051;28;20423;-74
2022/06/01 09:38:51;;;;;;;3.03;1.30;;;;;;;31.91;22.93;100046.16;5056048;28;20113;-76
2022/06/01 09:41:21;;;;;;;4.60;1.50;;;;;;;31.63;23.38;100050.91;5056360;28;20090;-74
2022/06/01 09:44:02;;;;;;;1.73;1.23;;;;;;;31.49;24.48;100050.72;5056276;28;20040;-75
2022/06/01 09:46:35;;;;;;;3.30;1.30;;;;;;;31.66;23.23;100056.31;5056547;28;20024;-74
2022/06/01 09:49:22;;;;;;;2.72;1.10;;;;;;;31.89;23.12;100055.63;5056676;28;20052;-76
2022/06/01 09:51:53;;;;;;;5.95;1.33;;;;;;;31.76;22.66;100053.28;5056567;28;20029;-78
2022/06/01 09:54:21;;;;;;;1.55;1.00;;;;;;;31.63;23.56;100053.84;5054586;28;20040;-76
2022/06/01 09:56:49;;;;;;;2.78;1.05;;;;;;;31.10;23.74;100049.50;5055932;28;20421;-78
2022/06/01 10:08:31;;;;;;;1.63;1.08;;;;;;;29.43;24.24;100068.19;5036601;28;20040;-77
2022/06/01 10:11:17;;;;;;;0.70;0.70;;;;;;;29.40;25.58;100072.38;5035724;28;20053;-78
2022/06/01 10:14:00;;;;;;;1.27;1.15;;;;;;;29.53;27.46;100071.88;5035815;28;20025;-74
2022/06/01 10:16:45;;;;;;;2.85;0.80;;;;;;;30.05;27.39;100074.31;5016126;28;20029;-76
2022/06/01 10:19:15;;;;;;;1.20;1.10;;;;;;;29.91;25.72;100077.72;5054012;28;20469;-76
2022/06/01 10:21:53;;;;;;;1.90;1.10;;;;;;;29.52;27.11;100073.28;5032921;28;20028;-77
2022/06/01 10:25:02;;;;;;;1.15;1.00;;;;;;;29.01;25.42;100074.47;5021127;28;20355;-77
2022/06/01 10:27:32;;;;;;;3.25;1.20;;;;;;;28.51;26.33;100080.03;5047187;28;20079;-77
2022/06/01 10:30:25;;;;;;;1.30;1.20;;;;;;;28.10;26.10;100082.59;5055957;28;20091;-75
2022/06/01 10:32:55;;;;;;;1.73;1.15;;;;;;;27.83;30.09;100097.22;5054717;28;20096;-76
2022/06/01 10:35:44;;;;;;;1.73;1.30;;;;;;;27.31;29.32;100098.63;5056344;28;20039;-77
2022/06/01 10:38:18;;;;;;;1.05;0.93;;;;;;;26.91;30.94;100099.66;5053762;28;20021;-77
2022/06/01 10:41:11;;;;;;;1.10;1.00;;;;;;;26.11;30.63;100104.91;5031220;28;20018;-77
2022/06/01 10:43:59;;;;;;;1.60;1.42;;;;;;;25.79;32.06;100106.47;5035367;28;20017;-77
2022/06/01 10:46:51;;;;;;;1.15;1.05;;;;;;;25.38;32.96;100116.50;5037449;28;20052;-76
2022/06/01 10:49:32;;;;;;;2.97;1.27;;;;;;;25.33;34.34;100107.97;5054537;28;20071;-77
2022/06/01 10:52:26;;;;;;;1.43;1.33;;;;;;;24.91;35.43;100105.53;5055011;28;20043;-77
2022/06/01 10:55:08;;;;;;;1.20;1.10;;;;;;;24.46;36.01;100120.88;5036842;28;20497;-77
2022/06/01 10:57:37;;;;;;;1.25;1.13;;;;;;;24.24;37.22;100104.16;5036954;28;20025;-77
2022/06/01 11:00:06;;;;;;;2.33;1.10;;;;;;;24.40;38.05;100102.81;5037037;28;20025;-78
2022/06/01 11:02:57;;;;;;;1.25;1.15;;;;;;;24.77;36.20;100106.28;5037188;28;20033;-77
2022/06/01 11:05:34;;;;;;;1.73;1.00;;;;;;;24.41;35.06;100068.66;5054750;28;20025;-77
2022/06/01 11:08:29;;;;;;;1.05;0.90;;;;;;;24.24;35.42;100094.63;5054520;28;20040;-77
2022/06/01 11:11:32;;;;;;;1.42;1.30;;;;;;;24.30;37.97;100098.91;5054551;28;20017;-78
2022/06/01 11:14:11;;;;;;;1.08;0.98;;;;;;;24.89;37.64;100102.44;5054370;28;20429;-75
2022/06/01 11:17:10;;;;;;;3.75;1.27;;;;;;;25.51;36.92;100095.06;5054337;28;20099;-74
2022/06/01 11:19:48;;;;;;;1.15;1.00;;;;;;;25.48;31.77;100093.34;5036904;28;20029;-75
2022/06/01 11:22:41;;;;;;;0.90;0.90;;;;;;;25.48;33.75;100087.50;5055490;28;20474;-76
2022/06/01 11:25:24;;;;;;;1.20;1.10;;;;;;;25.20;33.30;100093.63;5053926;28;20115;-73
2022/06/01 11:28:15;;;;;;;0.75;0.75;;;;;;;25.27;34.25;100099.44;5054110;28;20112;-72
2022/06/01 11:31:14;;;;;;;0.80;0.80;;;;;;;25.26;33.64;100094.19;5035864;28;20038;-72
2022/06/01 11:33:44;;;;;;;1.20;1.10;;;;;;;25.08;33.98;100095.41;5043045;28;20070;-72
2022/06/01 11:36:35;;;;;;;1.48;0.90;;;;;;;24.99;33.68;100098.91;5053579;28;20033;-72
2022/06/01 11:39:37;;;;;;;1.40;1.10;;;;;;;24.78;37.01;100104.94;5030650;28;20478;-71
2022/06/01 11:42:14;;;;;;;1.55;1.20;;;;;;;24.59;37.55;100101.66;5053205;28;20474;-73
2022/06/01 11:44:46;;;;;;;2.00;1.42;;;;;;;24.59;36.87;100099.50;5049928;28;20051;-72
2022/06/01 11:47:19;;;;;;;1.77;1.33;;;;;;;24.37;35.49;100095.22;5053179;28;20514;-73
2022/06/01 11:50:27;;;;;;;1.20;1.10;;;;;;;24.31;36.43;100090.97;4999251;28;20060;-71
2022/06/01 11:53:40;;;;;;;1.42;1.33;;;;;;;24.46;36.92;100093.88;5033833;28;20474;-72
2022/06/01 11:56:47;;;;;;;3.53;1.70;;;;;;;24.46;38.10;100102.63;5004089;28;20041;-72
2022/06/01 11:59:23;;;;;;;1.15;1.05;;;;;;;24.27;40.43;100105.91;4991927;28;20035;-72
2022/06/01 12:05:38;;;;;;;3.35;1.38;;;;;;;24.66;37.00;100095.06;5034081;28;20074;-74
2022/06/01 12:08:16;;;;;;;1.60;1.20;;;;;;;24.37;35.84;100094.47;5033824;28;20035;-75
2022/06/01 12:10:55;;;;;;;2.00;1.77;;;;;;;24.14;37.70;100103.13;5032651;28;20078;-75
2022/06/01 12:13:50;;;;;;;1.20;1.10;;;;;;;24.14;35.75;100105.25;5032975;28;20033;-75
2022/06/01 12:16:45;;;;;;;1.35;1.25;;;;;;;24.27;37.33;100102.22;5033737;28;20025;-74